Terminal Aerodrome Forecast
Issued by NWS

Home | Current Version | Previous Version | Text Only | Print | Product List | Glossary On
Versions: 1 2 3 4 5 6 7 8 9 10 11 12 13 14 15 16 17 18 19 20 21 22 23 24 25 26 27 28 29
000
FTUS43 KSGF 261309 AAA
TAFJLN
TAF AMD
KJLN 261309Z 2613/2712 01005KT P6SM OVC010
     FM261500 33006KT P6SM BKN015
     FM261800 32008KT P6SM BKN050
     FM270000 VRB04KT P6SM SCT250=

USA.gov is the U.S. government's official web portal to all federal, state and local government web resources and services.